Chestnut Hill, North Carolina
Current Conditions -  °F | °C
As of 7:55 PM on Wednesday 22 Oct 2014 (Local Time) from KGEV Reporting Station
Scattered Clouds Scattered Clouds  
Wind Chill: 36°   Ceiling: Unl
Heat Index: 42°   Visibility: 10mi
Dew Point: 34°   Wind: 10mph
Humidity: 73%   Direction: 320°NW
Pressure: 30.1"   Gusts: 21mph
Location:  36.484°N, 81.3801°W
Report Text: KGEV 222355Z AUTO 32009G18KT 10SM SCT019 05/01 A3010 RMK AO2 T00540010 10086 20054
Loading
Personal Weather Stations






























Interactive Weather Map
Tropical Storm Tracking
New forecast layout! Learn more

10-Day Weather Forecast

Advertisements
Track Severe Weather on mobile